This is the latest recevied weather packets stored in our database for station/object KD2DXJ. If no packets are shown the sender has not sent any weather packets the latest 10 day(s).
| Time | Temp. | Humidity | Pressure | Rain* | Wind** | Luminosity | Snow |
|---|---|---|---|---|---|---|---|
| 1777980656 | 15° C | 85% | 1001.2 hPa | 0 mm | - | 139 W/m² | - |
| 1777980352 | 15° C | 86% | 1001.1 hPa | 0 mm | - | 104 W/m² | - |
| 1777980051 | 14.44° C | 88% | 1000.8 hPa | 0 mm | - | 118 W/m² | - |
| 1777979744 | 13.89° C | 90% | 1000.9 hPa | 0 mm | - | 97 W/m² | - |
| 1777979440 | 13.89° C | 91% | 1000.9 hPa | 0 mm | - | 76 W/m² | - |
| 1777979137 | 13.89° C | 93% | 1000.8 hPa | 0 mm | - | 63 W/m² | - |
| 1777978834 | 13.89° C | 93% | 1000.9 hPa | 0 mm | - | 29 W/m² | - |
| 1777978530 | 13.89° C | 93% | 1000.8 hPa | 0 mm | - | 17 W/m² | - |
| 1777978226 | 13.89° C | 93% | 1000.8 hPa | 0 mm | - | 6 W/m² | - |
| 1777977923 | 13.33° C | 94% | 1000.8 hPa | 0 mm | - | 5 W/m² | - |
| 1777977621 | 13.89° C | 94% | 1000.7 hPa | 1.78 mm | - | 7 W/m² | - |
| 1777977318 | 13.89° C | 94% | 1000.8 hPa | 4.83 mm | - | 5 W/m² | - |
| 1777977015 | 13.89° C | 93% | 1000.8 hPa | 3.05 mm | - | 3 W/m² | - |
| 1777976712 | 14.44° C | 91% | 1000.9 hPa | 1.27 mm | - | 2 W/m² | - |
| 1777976409 | 15° C | 88% | 1000.6 hPa | 1.27 mm | - | 2 W/m² | - |
| 1777976108 | 15° C | 85% | 1000.9 hPa | 0 mm | - | 2 W/m² | - |
| 1777975804 | 15.56° C | 80% | 1000.8 hPa | 0 mm | - | 1 W/m² | - |
| 1777975501 | 16.11° C | 78% | 1000.6 hPa | 0 mm | - | 1 W/m² | - |
| 1777975197 | 16.11° C | 76% | 1000.8 hPa | 0 mm | - | 2 W/m² | - |
| 1777974894 | 16.67° C | 73% | 1000.8 hPa | 0 mm | - | 1 W/m² | - |
| 1777974590 | 16.67° C | 71% | 1000.8 hPa | 0 mm | - | 1 W/m² | - |
| 1777974287 | 16.11° C | 71% | 1000.6 hPa | 0 mm | - | 0 W/m² | - |
| 1777973983 | 15.56° C | 71% | 1001 hPa | 0 mm | - | 0 W/m² | - |
| 1777973679 | 15.56° C | 71% | 1000.6 hPa | 0 mm | - | 0 W/m² | - |
| 1777973377 | 15° C | 72% | 1000.6 hPa | 0 mm | - | 0 W/m² | - |
* Rain latest hour (hover to see other rain measurements)
** Current wind speed in m/s (hover to see current wind gust speed)